sensor_id;sensor_type;location;lat;lon;timestamp;pressure;altitude;pressure_sealevel;temperature;humidity
63663;BME280;49815;51.618;0.336;2022-12-24T00:01:18;99837.29;;;7.87;56.21
63663;BME280;49815;51.618;0.336;2022-12-24T00:03:42;99837.83;;;7.74;57.81
63663;BME280;49815;51.618;0.336;2022-12-24T00:06:10;99839.85;;;8.10;56.31
63663;BME280;49815;51.618;0.336;2022-12-24T00:08:34;99837.83;;;8.49;55.24
63663;BME280;49815;51.618;0.336;2022-12-24T00:10:58;99839.38;;;8.49;55.11
63663;BME280;49815;51.618;0.336;2022-12-24T00:13:24;99844.95;;;7.79;57.31
63663;BME280;49815;51.618;0.336;2022-12-24T00:15:49;99849.00;;;7.93;56.77
63663;BME280;49815;51.618;0.336;2022-12-24T00:18:15;99847.85;;;8.19;55.92
63663;BME280;49815;51.618;0.336;2022-12-24T00:20:41;99848.72;;;7.99;56.46
63663;BME280;49815;51.618;0.336;2022-12-24T00:23:06;99856.42;;;8.63;55.22
63663;BME280;49815;51.618;0.336;2022-12-24T00:25:32;99858.53;;;8.77;55.41
63663;BME280;49815;51.618;0.336;2022-12-24T00:27:57;99862.95;;;7.64;57.83
63663;BME280;49815;51.618;0.336;2022-12-24T00:30:23;99863.45;;;7.89;57.63
63663;BME280;49815;51.618;0.336;2022-12-24T00:32:48;99866.76;;;7.59;58.62
63663;BME280;49815;51.618;0.336;2022-12-24T00:35:14;99858.02;;;8.49;56.84
63663;BME280;49815;51.618;0.336;2022-12-24T00:37:39;99866.41;;;8.37;56.86
63663;BME280;49815;51.618;0.336;2022-12-24T00:40:05;99872.21;;;7.96;58.08
63663;BME280;49815;51.618;0.336;2022-12-24T00:42:30;99876.31;;;8.25;56.16
63663;BME280;49815;51.618;0.336;2022-12-24T00:44:55;99879.21;;;7.69;57.27
63663;BME280;49815;51.618;0.336;2022-12-24T00:47:21;99883.40;;;8.08;56.60
63663;BME280;49815;51.618;0.336;2022-12-24T00:49:47;99884.93;;;8.21;57.44
63663;BME280;49815;51.618;0.336;2022-12-24T00:52:12;99888.94;;;8.14;56.31
63663;BME280;49815;51.618;0.336;2022-12-24T00:54:37;99887.36;;;8.04;56.42
63663;BME280;49815;51.618;0.336;2022-12-24T00:57:03;99886.24;;;7.06;58.14
63663;BME280;49815;51.618;0.336;2022-12-24T00:59:28;99889.53;;;8.29;55.85
63663;BME280;49815;51.618;0.336;2022-12-24T01:01:53;99894.16;;;8.09;57.28
63663;BME280;49815;51.618;0.336;2022-12-24T01:04:19;99892.03;;;7.64;57.10
63663;BME280;49815;51.618;0.336;2022-12-24T01:06:44;99893.00;;;7.91;57.57
63663;BME280;49815;51.618;0.336;2022-12-24T01:09:10;99893.68;;;8.10;56.64
63663;BME280;49815;51.618;0.336;2022-12-24T01:11:35;99894.26;;;8.02;56.24
63663;BME280;49815;51.618;0.336;2022-12-24T01:14:00;99898.07;;;8.10;56.49
63663;BME280;49815;51.618;0.336;2022-12-24T01:16:25;99902.19;;;8.44;56.21
63663;BME280;49815;51.618;0.336;2022-12-24T01:18:50;99905.11;;;7.62;57.44
63663;BME280;49815;51.618;0.336;2022-12-24T01:21:16;99905.27;;;8.57;55.49
63663;BME280;49815;51.618;0.336;2022-12-24T01:23:41;99908.24;;;7.91;56.64
63663;BME280;49815;51.618;0.336;2022-12-24T01:26:08;99910.37;;;7.96;55.99
63663;BME280;49815;51.618;0.336;2022-12-24T01:28:33;99912.62;;;7.85;56.73
63663;BME280;49815;51.618;0.336;2022-12-24T01:30:58;99921.14;;;7.91;57.43
63663;BME280;49815;51.618;0.336;2022-12-24T01:33:27;99925.92;;;8.03;57.16
63663;BME280;49815;51.618;0.336;2022-12-24T01:35:49;99935.00;;;8.18;55.54
63663;BME280;49815;51.618;0.336;2022-12-24T01:38:14;99934.02;;;8.33;56.14
63663;BME280;49815;51.618;0.336;2022-12-24T01:40:41;99937.98;;;7.71;57.68
63663;BME280;49815;51.618;0.336;2022-12-24T01:43:14;99939.61;;;8.24;56.59
63663;BME280;49815;51.618;0.336;2022-12-24T01:45:42;99936.26;;;8.30;55.27
63663;BME280;49815;51.618;0.336;2022-12-24T01:47:57;99937.70;;;8.61;55.09
63663;BME280;49815;51.618;0.336;2022-12-24T01:50:22;99936.14;;;8.26;54.49
63663;BME280;49815;51.618;0.336;2022-12-24T01:52:48;99932.02;;;7.55;56.58
63663;BME280;49815;51.618;0.336;2022-12-24T01:55:15;99934.32;;;7.97;56.94
63663;BME280;49815;51.618;0.336;2022-12-24T01:57:42;99933.45;;;7.83;56.67
63663;BME280;49815;51.618;0.336;2022-12-24T02:00:08;99933.81;;;7.34;56.58
63663;BME280;49815;51.618;0.336;2022-12-24T02:02:29;99941.43;;;7.57;56.44
63663;BME280;49815;51.618;0.336;2022-12-24T02:04:59;99948.73;;;8.25;55.70
63663;BME280;49815;51.618;0.336;2022-12-24T02:07:20;99959.27;;;7.82;56.37
63663;BME280;49815;51.618;0.336;2022-12-24T02:09:48;99965.28;;;8.48;55.26
63663;BME280;49815;51.618;0.336;2022-12-24T02:12:12;99972.06;;;8.07;55.43
63663;BME280;49815;51.618;0.336;2022-12-24T02:14:37;99976.16;;;8.09;55.33
63663;BME280;49815;51.618;0.336;2022-12-24T02:17:09;99977.02;;;8.47;55.13
63663;BME280;49815;51.618;0.336;2022-12-24T02:21:57;99979.71;;;8.76;54.39
63663;BME280;49815;51.618;0.336;2022-12-24T02:24:29;99983.72;;;8.71;54.07
63663;BME280;49815;51.618;0.336;2022-12-24T02:26:57;99978.81;;;8.34;55.30
63663;BME280;49815;51.618;0.336;2022-12-24T02:29:23;99972.27;;;8.32;54.77
63663;BME280;49815;51.618;0.336;2022-12-24T02:31:37;99965.71;;;8.21;54.52
63663;BME280;49815;51.618;0.336;2022-12-24T02:34:05;99965.75;;;8.22;55.25
63663;BME280;49815;51.618;0.336;2022-12-24T02:36:30;99964.36;;;7.58;55.75
63663;BME280;49815;51.618;0.336;2022-12-24T02:38:54;99971.60;;;7.99;55.46
63663;BME280;49815;51.618;0.336;2022-12-24T02:41:24;99972.36;;;8.33;55.80
63663;BME280;49815;51.618;0.336;2022-12-24T02:43:44;99970.63;;;7.67;56.34
63663;BME280;49815;51.618;0.336;2022-12-24T02:46:09;99980.58;;;7.87;55.84
63663;BME280;49815;51.618;0.336;2022-12-24T02:48:31;99981.54;;;8.30;54.71
63663;BME280;49815;51.618;0.336;2022-12-24T02:51:00;99986.40;;;8.82;54.47
63663;BME280;49815;51.618;0.336;2022-12-24T02:53:22;99982.14;;;7.57;56.22
63663;BME280;49815;51.618;0.336;2022-12-24T02:55:57;99978.67;;;8.19;55.94
63663;BME280;49815;51.618;0.336;2022-12-24T02:58:23;99980.07;;;8.60;55.02
63663;BME280;49815;51.618;0.336;2022-12-24T03:00:47;99990.55;;;7.74;56.70
63663;BME280;49815;51.618;0.336;2022-12-24T03:03:15;99988.57;;;7.53;56.77
63663;BME280;49815;51.618;0.336;2022-12-24T03:05:36;99981.23;;;8.21;55.30
63663;BME280;49815;51.618;0.336;2022-12-24T03:08:01;99989.36;;;7.63;56.67
63663;BME280;49815;51.618;0.336;2022-12-24T03:10:25;99993.38;;;6.69;57.54
63663;BME280;49815;51.618;0.336;2022-12-24T03:12:48;99991.61;;;7.83;56.49
63663;BME280;49815;51.618;0.336;2022-12-24T03:15:15;99998.16;;;7.61;55.72
63663;BME280;49815;51.618;0.336;2022-12-24T03:17:38;99999.00;;;7.80;55.38
63663;BME280;49815;51.618;0.336;2022-12-24T03:20:02;100001.07;;;8.32;54.72
63663;BME280;49815;51.618;0.336;2022-12-24T03:22:29;100000.25;;;8.40;55.03
63663;BME280;49815;51.618;0.336;2022-12-24T03:24:53;99999.89;;;8.13;55.25
63663;BME280;49815;51.618;0.336;2022-12-24T03:27:19;100006.96;;;8.52;54.77
63663;BME280;49815;51.618;0.336;2022-12-24T03:29:44;100004.16;;;8.13;55.59
63663;BME280;49815;51.618;0.336;2022-12-24T03:32:09;100004.98;;;7.78;56.63
63663;BME280;49815;51.618;0.336;2022-12-24T03:34:34;100001.52;;;7.89;55.25
63663;BME280;49815;51.618;0.336;2022-12-24T03:36:59;99999.62;;;8.44;54.46
63663;BME280;49815;51.618;0.336;2022-12-24T03:39:25;100004.12;;;8.37;55.07
63663;BME280;49815;51.618;0.336;2022-12-24T03:41:50;100007.03;;;7.71;55.50
63663;BME280;49815;51.618;0.336;2022-12-24T03:44:15;100005.86;;;7.84;56.23
63663;BME280;49815;51.618;0.336;2022-12-24T03:46:41;100002.26;;;7.66;55.71
63663;BME280;49815;51.618;0.336;2022-12-24T03:49:06;99993.69;;;7.79;55.72
63663;BME280;49815;51.618;0.336;2022-12-24T03:51:31;99994.41;;;8.03;55.50
63663;BME280;49815;51.618;0.336;2022-12-24T03:53:57;100002.61;;;7.65;57.01
63663;BME280;49815;51.618;0.336;2022-12-24T03:56:22;100008.37;;;7.27;56.57
63663;BME280;49815;51.618;0.336;2022-12-24T03:58:48;100011.79;;;7.95;56.00
63663;BME280;49815;51.618;0.336;2022-12-24T04:01:13;100014.01;;;7.99;56.05
63663;BME280;49815;51.618;0.336;2022-12-24T04:03:38;100015.53;;;8.06;55.81
63663;BME280;49815;51.618;0.336;2022-12-24T04:06:06;100012.30;;;7.37;57.06
63663;BME280;49815;51.618;0.336;2022-12-24T04:08:29;100009.29;;;7.29;57.66
63663;BME280;49815;51.618;0.336;2022-12-24T04:10:55;100009.39;;;8.20;55.88
63663;BME280;49815;51.618;0.336;2022-12-24T04:13:20;100004.21;;;7.43;55.86
63663;BME280;49815;51.618;0.336;2022-12-24T04:15:54;99999.48;;;7.79;55.40
63663;BME280;49815;51.618;0.336;2022-12-24T04:18:11;100007.04;;;7.98;55.76
63663;BME280;49815;51.618;0.336;2022-12-24T04:20:36;100008.91;;;7.71;56.05
63663;BME280;49815;51.618;0.336;2022-12-24T04:23:04;100011.88;;;8.31;55.37
63663;BME280;49815;51.618;0.336;2022-12-24T04:25:27;100012.45;;;7.77;56.19
63663;BME280;49815;51.618;0.336;2022-12-24T04:27:53;100016.99;;;7.67;56.37
63663;BME280;49815;51.618;0.336;2022-12-24T04:30:19;100029.91;;;7.83;55.86
63663;BME280;49815;51.618;0.336;2022-12-24T04:32:44;100032.49;;;7.91;55.37
63663;BME280;49815;51.618;0.336;2022-12-24T04:35:09;100035.60;;;8.11;55.22
63663;BME280;49815;51.618;0.336;2022-12-24T04:37:35;100043.22;;;8.10;55.48
63663;BME280;49815;51.618;0.336;2022-12-24T04:40:01;100059.28;;;7.89;56.54
63663;BME280;49815;51.618;0.336;2022-12-24T04:42:26;100061.27;;;7.11;57.90
63663;BME280;49815;51.618;0.336;2022-12-24T04:44:52;100058.39;;;7.76;57.32
63663;BME280;49815;51.618;0.336;2022-12-24T04:47:18;100061.58;;;8.12;56.52
63663;BME280;49815;51.618;0.336;2022-12-24T04:49:42;100070.00;;;7.69;57.36
63663;BME280;49815;51.618;0.336;2022-12-24T04:52:08;100074.09;;;7.57;56.54
63663;BME280;49815;51.618;0.336;2022-12-24T04:54:34;100071.42;;;7.84;56.93
63663;BME280;49815;51.618;0.336;2022-12-24T04:56:59;100069.34;;;7.98;55.55
63663;BME280;49815;51.618;0.336;2022-12-24T04:59:24;100070.56;;;7.53;56.21
63663;BME280;49815;51.618;0.336;2022-12-24T05:01:50;100075.45;;;7.59;55.61
63663;BME280;49815;51.618;0.336;2022-12-24T05:04:15;100079.41;;;7.90;55.27
63663;BME280;49815;51.618;0.336;2022-12-24T05:06:41;100081.19;;;7.93;55.68
63663;BME280;49815;51.618;0.336;2022-12-24T05:09:06;100080.60;;;7.91;55.08
63663;BME280;49815;51.618;0.336;2022-12-24T05:11:31;100083.46;;;7.87;56.38
63663;BME280;49815;51.618;0.336;2022-12-24T05:13:57;100081.51;;;7.91;55.15
63663;BME280;49815;51.618;0.336;2022-12-24T05:16:23;100082.58;;;8.07;55.30
63663;BME280;49815;51.618;0.336;2022-12-24T05:18:50;100088.98;;;7.84;55.76
63663;BME280;49815;51.618;0.336;2022-12-24T05:21:15;100088.77;;;7.67;55.98
63663;BME280;49815;51.618;0.336;2022-12-24T05:23:39;100093.69;;;7.71;55.32
63663;BME280;49815;51.618;0.336;2022-12-24T05:26:12;100100.36;;;7.69;54.85
63663;BME280;49815;51.618;0.336;2022-12-24T05:28:30;100097.27;;;7.38;56.64
63663;BME280;49815;51.618;0.336;2022-12-24T05:30:56;100100.37;;;7.77;54.95
63663;BME280;49815;51.618;0.336;2022-12-24T05:33:21;100105.22;;;7.64;55.16
63663;BME280;49815;51.618;0.336;2022-12-24T05:35:48;100109.04;;;8.37;54.32
63663;BME280;49815;51.618;0.336;2022-12-24T05:38:12;100113.07;;;7.74;55.77
63663;BME280;49815;51.618;0.336;2022-12-24T05:40:38;100112.45;;;7.67;55.13
63663;BME280;49815;51.618;0.336;2022-12-24T05:43:04;100110.43;;;7.52;55.36
63663;BME280;49815;51.618;0.336;2022-12-24T05:45:29;100108.82;;;8.19;54.92
63663;BME280;49815;51.618;0.336;2022-12-24T05:47:54;100109.25;;;7.61;55.62
63663;BME280;49815;51.618;0.336;2022-12-24T05:50:20;100111.24;;;7.33;55.73
63663;BME280;49815;51.618;0.336;2022-12-24T05:52:45;100110.13;;;7.70;55.36
63663;BME280;49815;51.618;0.336;2022-12-24T05:55:10;100112.44;;;8.23;54.23
63663;BME280;49815;51.618;0.336;2022-12-24T05:57:37;100118.21;;;7.75;55.29
63663;BME280;49815;51.618;0.336;2022-12-24T06:00:02;100117.68;;;7.39;55.59
63663;BME280;49815;51.618;0.336;2022-12-24T06:02:27;100124.42;;;8.04;55.31
63663;BME280;49815;51.618;0.336;2022-12-24T06:04:52;100131.81;;;7.61;54.75
63663;BME280;49815;51.618;0.336;2022-12-24T06:07:19;100134.48;;;7.96;54.56
63663;BME280;49815;51.618;0.336;2022-12-24T06:09:43;100143.89;;;7.91;54.85
63663;BME280;49815;51.618;0.336;2022-12-24T06:12:09;100151.67;;;8.13;54.11
63663;BME280;49815;51.618;0.336;2022-12-24T06:14:34;100155.47;;;7.95;53.72
63663;BME280;49815;51.618;0.336;2022-12-24T06:17:00;100160.28;;;7.86;54.98
63663;BME280;49815;51.618;0.336;2022-12-24T06:19:26;100164.14;;;7.78;54.74
63663;BME280;49815;51.618;0.336;2022-12-24T06:21:51;100166.43;;;6.92;56.16
63663;BME280;49815;51.618;0.336;2022-12-24T06:24:17;100174.63;;;7.87;54.77
63663;BME280;49815;51.618;0.336;2022-12-24T06:26:42;100173.72;;;7.66;54.77
63663;BME280;49815;51.618;0.336;2022-12-24T06:29:07;100174.04;;;7.92;53.89
63663;BME280;49815;51.618;0.336;2022-12-24T06:31:33;100176.08;;;7.78;54.51
63663;BME280;49815;51.618;0.336;2022-12-24T06:33:58;100176.00;;;7.43;54.88
63663;BME280;49815;51.618;0.336;2022-12-24T06:36:24;100180.12;;;7.49;54.37
63663;BME280;49815;51.618;0.336;2022-12-24T06:38:50;100185.56;;;7.87;54.37
63663;BME280;49815;51.618;0.336;2022-12-24T06:41:16;100190.03;;;7.06;56.30
63663;BME280;49815;51.618;0.336;2022-12-24T06:43:43;100183.65;;;6.96;56.06
63663;BME280;49815;51.618;0.336;2022-12-24T06:46:06;100180.93;;;6.99;55.46
63663;BME280;49815;51.618;0.336;2022-12-24T06:48:31;100182.61;;;7.71;55.09
63663;BME280;49815;51.618;0.336;2022-12-24T06:50:57;100188.88;;;7.18;54.93
63663;BME280;49815;51.618;0.336;2022-12-24T06:53:22;100183.57;;;7.14;55.33
63663;BME280;49815;51.618;0.336;2022-12-24T06:55:48;100185.43;;;7.42;54.77
63663;BME280;49815;51.618;0.336;2022-12-24T06:58:13;100187.33;;;7.47;55.30
63663;BME280;49815;51.618;0.336;2022-12-24T07:00:38;100189.06;;;7.48;55.20
63663;BME280;49815;51.618;0.336;2022-12-24T07:03:04;100193.46;;;6.89;55.37
63663;BME280;49815;51.618;0.336;2022-12-24T07:05:29;100199.20;;;7.31;55.74
63663;BME280;49815;51.618;0.336;2022-12-24T07:07:55;100204.01;;;7.35;56.29
63663;BME280;49815;51.618;0.336;2022-12-24T07:10:21;100208.83;;;7.18;55.08
63663;BME280;49815;51.618;0.336;2022-12-24T07:12:46;100217.35;;;7.00;55.97
63663;BME280;49815;51.618;0.336;2022-12-24T07:15:11;100221.56;;;6.59;57.26
63663;BME280;49815;51.618;0.336;2022-12-24T07:17:37;100227.38;;;7.18;56.08
63663;BME280;49815;51.618;0.336;2022-12-24T07:20:03;100225.15;;;7.18;55.94
63663;BME280;49815;51.618;0.336;2022-12-24T07:22:27;100228.70;;;7.11;56.11
63663;BME280;49815;51.618;0.336;2022-12-24T07:24:53;100227.53;;;7.41;55.47
63663;BME280;49815;51.618;0.336;2022-12-24T07:27:19;100229.50;;;6.95;55.87
63663;BME280;49815;51.618;0.336;2022-12-24T07:29:44;100232.00;;;6.97;55.98
63663;BME280;49815;51.618;0.336;2022-12-24T07:32:10;100231.73;;;6.92;55.74
63663;BME280;49815;51.618;0.336;2022-12-24T07:34:35;100234.68;;;6.82;55.87
63663;BME280;49815;51.618;0.336;2022-12-24T07:37:01;100240.55;;;6.60;56.42
63663;BME280;49815;51.618;0.336;2022-12-24T07:39:27;100239.60;;;7.41;56.02
63663;BME280;49815;51.618;0.336;2022-12-24T07:41:52;100240.81;;;6.93;55.90
63663;BME280;49815;51.618;0.336;2022-12-24T07:44:18;100242.75;;;7.32;55.53
63663;BME280;49815;51.618;0.336;2022-12-24T07:46:43;100249.22;;;7.05;55.40
63663;BME280;49815;51.618;0.336;2022-12-24T07:49:09;100255.02;;;7.00;55.54
63663;BME280;49815;51.618;0.336;2022-12-24T07:51:35;100259.39;;;7.29;55.33
63663;BME280;49815;51.618;0.336;2022-12-24T07:54:00;100266.96;;;7.58;54.83
63663;BME280;49815;51.618;0.336;2022-12-24T07:56:24;100264.09;;;6.71;56.11
63663;BME280;49815;51.618;0.336;2022-12-24T07:58:51;100265.04;;;6.88;55.79
63663;BME280;49815;51.618;0.336;2022-12-24T08:01:16;100265.50;;;7.02;54.81
63663;BME280;49815;51.618;0.336;2022-12-24T08:03:41;100267.09;;;7.85;53.75
63663;BME280;49815;51.618;0.336;2022-12-24T08:06:07;100271.94;;;7.18;54.95
63663;BME280;49815;51.618;0.336;2022-12-24T08:08:32;100277.11;;;7.27;54.88
63663;BME280;49815;51.618;0.336;2022-12-24T08:11:00;100284.02;;;7.67;54.48
63663;BME280;49815;51.618;0.336;2022-12-24T08:13:23;100278.10;;;7.09;54.99
63663;BME280;49815;51.618;0.336;2022-12-24T08:15:49;100282.36;;;7.54;54.31
63663;BME280;49815;51.618;0.336;2022-12-24T08:18:14;100283.17;;;7.30;55.46
63663;BME280;49815;51.618;0.336;2022-12-24T08:20:40;100291.67;;;7.53;54.70
63663;BME280;49815;51.618;0.336;2022-12-24T08:23:06;100296.66;;;7.45;54.39
63663;BME280;49815;51.618;0.336;2022-12-24T08:25:30;100302.92;;;6.73;56.23
63663;BME280;49815;51.618;0.336;2022-12-24T08:27:56;100297.08;;;7.55;55.26
63663;BME280;49815;51.618;0.336;2022-12-24T08:30:22;100299.59;;;7.93;54.28
63663;BME280;49815;51.618;0.336;2022-12-24T08:32:47;100294.65;;;8.05;53.69
63663;BME280;49815;51.618;0.336;2022-12-24T08:35:12;100289.27;;;7.46;53.80
63663;BME280;49815;51.618;0.336;2022-12-24T08:37:37;100287.49;;;7.35;54.06
63663;BME280;49815;51.618;0.336;2022-12-24T08:40:03;100290.86;;;7.64;53.64
63663;BME280;49815;51.618;0.336;2022-12-24T08:42:28;100296.44;;;7.63;53.74
63663;BME280;49815;51.618;0.336;2022-12-24T08:44:53;100288.21;;;7.81;53.27
63663;BME280;49815;51.618;0.336;2022-12-24T08:47:19;100293.56;;;7.87;53.66
63663;BME280;49815;51.618;0.336;2022-12-24T08:49:44;100302.50;;;7.85;53.41
63663;BME280;49815;51.618;0.336;2022-12-24T08:52:10;100311.67;;;7.72;53.59
63663;BME280;49815;51.618;0.336;2022-12-24T08:54:35;100318.07;;;7.49;53.69
63663;BME280;49815;51.618;0.336;2022-12-24T08:57:01;100320.96;;;8.08;53.59
63663;BME280;49815;51.618;0.336;2022-12-24T08:59:26;100323.20;;;8.10;53.09
63663;BME280;49815;51.618;0.336;2022-12-24T09:01:52;100315.52;;;7.74;52.29
63663;BME280;49815;51.618;0.336;2022-12-24T09:04:17;100319.90;;;8.23;52.04
63663;BME280;49815;51.618;0.336;2022-12-24T09:06:42;100320.26;;;7.91;52.39
63663;BME280;49815;51.618;0.336;2022-12-24T09:09:08;100321.71;;;7.74;52.26
63663;BME280;49815;51.618;0.336;2022-12-24T09:11:34;100317.68;;;8.16;53.07
63663;BME280;49815;51.618;0.336;2022-12-24T09:13:59;100311.59;;;7.99;52.69
63663;BME280;49815;51.618;0.336;2022-12-24T09:16:24;100315.13;;;8.20;51.97
63663;BME280;49815;51.618;0.336;2022-12-24T09:18:50;100323.41;;;7.99;51.95
63663;BME280;49815;51.618;0.336;2022-12-24T09:21:16;100317.95;;;8.40;51.74
63663;BME280;49815;51.618;0.336;2022-12-24T09:23:43;100313.45;;;8.48;51.51
63663;BME280;49815;51.618;0.336;2022-12-24T09:26:07;100314.36;;;8.13;51.54
63663;BME280;49815;51.618;0.336;2022-12-24T09:28:31;100326.53;;;8.21;51.45
63663;BME280;49815;51.618;0.336;2022-12-24T09:30:58;100324.29;;;8.09;51.93
63663;BME280;49815;51.618;0.336;2022-12-24T09:33:22;100321.66;;;8.01;51.48
63663;BME280;49815;51.618;0.336;2022-12-24T09:35:49;100319.84;;;8.10;51.39
63663;BME280;49815;51.618;0.336;2022-12-24T09:38:13;100317.23;;;8.04;51.53
63663;BME280;49815;51.618;0.336;2022-12-24T09:40:39;100321.13;;;8.05;51.45
63663;BME280;49815;51.618;0.336;2022-12-24T09:43:11;100318.18;;;8.27;51.75
63663;BME280;49815;51.618;0.336;2022-12-24T09:45:32;100321.17;;;8.68;51.40
63663;BME280;49815;51.618;0.336;2022-12-24T09:47:58;100319.31;;;8.24;52.08
63663;BME280;49815;51.618;0.336;2022-12-24T09:50:28;100312.80;;;8.44;51.49
63663;BME280;49815;51.618;0.336;2022-12-24T09:52:47;100313.70;;;8.12;51.83
63663;BME280;49815;51.618;0.336;2022-12-24T09:55:21;100320.98;;;8.48;51.50
63663;BME280;49815;51.618;0.336;2022-12-24T09:57:39;100331.75;;;7.98;52.23
63663;BME280;49815;51.618;0.336;2022-12-24T10:00:04;100335.40;;;8.24;51.89
63663;BME280;49815;51.618;0.336;2022-12-24T10:02:28;100339.64;;;8.44;51.13
63663;BME280;49815;51.618;0.336;2022-12-24T10:04:54;100339.42;;;8.88;50.68
63663;BME280;49815;51.618;0.336;2022-12-24T10:07:29;100343.59;;;9.16;50.65
63663;BME280;49815;51.618;0.336;2022-12-24T10:09:47;100346.32;;;9.47;50.04
63663;BME280;49815;51.618;0.336;2022-12-24T10:12:15;100349.60;;;9.10;50.09
63663;BME280;49815;51.618;0.336;2022-12-24T10:14:46;100349.15;;;9.30;49.87
63663;BME280;49815;51.618;0.336;2022-12-24T10:17:11;100345.37;;;9.39;49.21
63663;BME280;49815;51.618;0.336;2022-12-24T10:19:35;100340.72;;;9.79;49.57
63663;BME280;49815;51.618;0.336;2022-12-24T10:22:01;100341.10;;;9.45;49.32
63663;BME280;49815;51.618;0.336;2022-12-24T10:24:21;100347.08;;;9.48;49.45
63663;BME280;49815;51.618;0.336;2022-12-24T10:26:44;100348.37;;;9.20;49.73
63663;BME280;49815;51.618;0.336;2022-12-24T10:29:13;100348.81;;;9.24;49.96
63663;BME280;49815;51.618;0.336;2022-12-24T10:31:35;100346.96;;;9.64;50.09
63663;BME280;49815;51.618;0.336;2022-12-24T10:34:01;100348.21;;;9.21;50.74
63663;BME280;49815;51.618;0.336;2022-12-24T10:36:28;100348.66;;;9.67;49.99
63663;BME280;49815;51.618;0.336;2022-12-24T10:38:50;100354.36;;;9.14;50.55
63663;BME280;49815;51.618;0.336;2022-12-24T10:41:15;100351.85;;;9.48;50.13
63663;BME280;49815;51.618;0.336;2022-12-24T10:43:41;100357.58;;;9.80;49.97
63663;BME280;49815;51.618;0.336;2022-12-24T10:46:12;100355.12;;;9.96;49.50
63663;BME280;49815;51.618;0.336;2022-12-24T10:48:36;100360.41;;;9.77;49.52
63663;BME280;49815;51.618;0.336;2022-12-24T10:51:00;100356.85;;;10.26;49.38
63663;BME280;49815;51.618;0.336;2022-12-24T10:53:26;100361.02;;;9.65;49.59
63663;BME280;49815;51.618;0.336;2022-12-24T10:55:47;100356.94;;;10.19;49.01
63663;BME280;49815;51.618;0.336;2022-12-24T10:58:16;100361.17;;;9.86;48.81
63663;BME280;49815;51.618;0.336;2022-12-24T11:00:38;100363.18;;;9.67;49.47
63663;BME280;49815;51.618;0.336;2022-12-24T11:03:14;100359.22;;;10.19;48.85
63663;BME280;49815;51.618;0.336;2022-12-24T11:05:30;100360.73;;;9.90;49.30
63663;BME280;49815;51.618;0.336;2022-12-24T11:07:59;100365.50;;;9.84;49.48
63663;BME280;49815;51.618;0.336;2022-12-24T11:10:23;100364.40;;;9.75;49.70
63663;BME280;49815;51.618;0.336;2022-12-24T11:12:47;100355.45;;;10.35;49.24
63663;BME280;49815;51.618;0.336;2022-12-24T11:15:16;100350.05;;;10.16;49.15
63663;BME280;49815;51.618;0.336;2022-12-24T11:17:35;100342.36;;;9.95;49.03
63663;BME280;49815;51.618;0.336;2022-12-24T11:20:01;100342.97;;;10.04;48.81
63663;BME280;49815;51.618;0.336;2022-12-24T11:22:28;100355.27;;;10.44;48.64
63663;BME280;49815;51.618;0.336;2022-12-24T11:25:02;100353.69;;;10.60;48.39
63663;BME280;49815;51.618;0.336;2022-12-24T11:27:26;100353.16;;;10.09;49.01
63663;BME280;49815;51.618;0.336;2022-12-24T11:29:43;100356.88;;;10.81;48.24
63663;BME280;49815;51.618;0.336;2022-12-24T11:32:15;100360.31;;;10.18;48.87
63663;BME280;49815;51.618;0.336;2022-12-24T11:34:35;100366.43;;;10.67;48.35
63663;BME280;49815;51.618;0.336;2022-12-24T11:37:08;100368.11;;;10.47;48.44
63663;BME280;49815;51.618;0.336;2022-12-24T11:39:25;100372.56;;;10.36;48.54
63663;BME280;49815;51.618;0.336;2022-12-24T11:41:52;100371.79;;;9.62;49.09
63663;BME280;49815;51.618;0.336;2022-12-24T11:44:23;100368.97;;;9.85;49.53
63663;BME280;49815;51.618;0.336;2022-12-24T11:46:42;100376.61;;;9.92;49.14
63663;BME280;49815;51.618;0.336;2022-12-24T11:49:15;100373.86;;;9.73;49.47
63663;BME280;49815;51.618;0.336;2022-12-24T11:51:33;100365.11;;;10.13;49.74
63663;BME280;49815;51.618;0.336;2022-12-24T11:54:04;100369.86;;;10.07;49.82
63663;BME280;49815;51.618;0.336;2022-12-24T11:56:31;100373.03;;;10.29;49.72
63663;BME280;49815;51.618;0.336;2022-12-24T11:58:53;100373.85;;;10.41;49.61
63663;BME280;49815;51.618;0.336;2022-12-24T12:01:20;100373.63;;;10.05;49.89
63663;BME280;49815;51.618;0.336;2022-12-24T12:03:44;100375.44;;;10.39;49.63
63663;BME280;49815;51.618;0.336;2022-12-24T12:06:22;100374.46;;;9.99;49.79
63663;BME280;49815;51.618;0.336;2022-12-24T12:08:31;100381.67;;;9.42;51.00
63663;BME280;49815;51.618;0.336;2022-12-24T12:10:57;100371.85;;;9.76;50.70
63663;BME280;49815;51.618;0.336;2022-12-24T12:13:26;100378.78;;;9.67;50.66
63663;BME280;49815;51.618;0.336;2022-12-24T12:15:50;100373.92;;;10.18;49.91
63663;BME280;49815;51.618;0.336;2022-12-24T12:18:15;100374.64;;;10.33;49.75
63663;BME280;49815;51.618;0.336;2022-12-24T12:20:41;100381.26;;;9.73;50.28
63663;BME280;49815;51.618;0.336;2022-12-24T12:23:10;100377.46;;;10.56;49.29
63663;BME280;49815;51.618;0.336;2022-12-24T12:25:32;100377.98;;;10.49;49.45
63663;BME280;49815;51.618;0.336;2022-12-24T12:27:55;100373.76;;;10.61;49.11
63663;BME280;49815;51.618;0.336;2022-12-24T12:30:22;100372.27;;;10.62;48.94
63663;BME280;49815;51.618;0.336;2022-12-24T12:32:50;100368.99;;;10.53;48.99
63663;BME280;49815;51.618;0.336;2022-12-24T12:35:22;100372.60;;;10.61;48.81
63663;BME280;49815;51.618;0.336;2022-12-24T12:37:39;100376.59;;;10.56;48.82
63663;BME280;49815;51.618;0.336;2022-12-24T12:40:05;100378.58;;;10.16;49.59
63663;BME280;49815;51.618;0.336;2022-12-24T12:42:30;100375.72;;;10.15;49.62
63663;BME280;49815;51.618;0.336;2022-12-24T12:45:12;100364.87;;;10.29;49.88
63663;BME280;49815;51.618;0.336;2022-12-24T12:47:32;100366.36;;;10.47;49.67
63663;BME280;49815;51.618;0.336;2022-12-24T12:49:49;100365.82;;;10.45;49.61
63663;BME280;49815;51.618;0.336;2022-12-24T12:52:18;100369.88;;;9.45;50.49
63663;BME280;49815;51.618;0.336;2022-12-24T12:54:46;100368.75;;;9.04;52.04